createdAt,value
2018-05-26T00:02:49.385Z,13.80
2018-05-26T00:05:52.706Z,13.80
2018-05-26T00:08:56.793Z,13.70
2018-05-26T00:12:00.122Z,13.70
2018-05-26T00:15:04.198Z,13.60
2018-05-26T00:18:07.518Z,13.60
2018-05-26T00:21:10.849Z,13.60
2018-05-26T00:24:14.165Z,13.60
2018-05-26T00:27:17.467Z,13.50
2018-05-26T00:30:20.773Z,13.40
2018-05-26T00:33:24.096Z,13.30
2018-05-26T00:36:27.409Z,13.20
2018-05-26T00:39:31.502Z,13.00
2018-05-26T00:42:34.833Z,12.90
2018-05-26T00:45:38.901Z,13.00
2018-05-26T00:48:42.216Z,12.90
2018-05-26T00:51:45.530Z,13.00
2018-05-26T00:54:49.618Z,13.10
2018-05-26T00:57:52.929Z,13.10
2018-05-26T01:00:56.265Z,13.10
2018-05-26T01:03:59.604Z,13.10
2018-05-26T01:07:02.914Z,13.00
2018-05-26T01:10:06.233Z,12.90
2018-05-26T01:13:09.553Z,12.80
2018-05-26T01:16:12.878Z,12.80
2018-05-26T01:19:16.176Z,12.70
2018-05-26T01:22:19.493Z,12.60
2018-05-26T01:25:22.810Z,12.40
2018-05-26T01:28:26.894Z,12.30
2018-05-26T01:31:30.197Z,12.30
2018-05-26T01:34:33.518Z,12.20
2018-05-26T01:37:37.585Z,12.10
2018-05-26T01:40:40.906Z,12.10
2018-05-26T01:43:44.209Z,12.10
2018-05-26T01:46:47.541Z,12.10
2018-05-26T01:49:50.845Z,12.10
2018-05-26T01:52:54.178Z,12.00
2018-05-26T01:55:57.489Z,11.90
2018-05-26T01:59:00.823Z,11.80
2018-05-26T02:02:04.126Z,11.70
2018-05-26T02:05:07.458Z,11.60
2018-05-26T02:08:10.762Z,11.60
2018-05-26T02:11:14.078Z,11.60
2018-05-26T02:14:17.393Z,11.60
2018-05-26T02:17:20.743Z,11.60
2018-05-26T02:20:24.058Z,11.60
2018-05-26T02:23:27.401Z,11.70
2018-05-26T02:26:30.709Z,11.60
2018-05-26T02:29:34.054Z,11.60
2018-05-26T02:32:37.363Z,11.60
2018-05-26T02:35:40.707Z,11.60
2018-05-26T02:38:44.018Z,11.50
2018-05-26T02:41:47.340Z,11.50
2018-05-26T02:44:50.653Z,11.50
2018-05-26T02:47:53.993Z,11.50
2018-05-26T02:50:57.301Z,11.40
2018-05-26T02:54:00.625Z,11.40
2018-05-26T02:57:03.941Z,11.40
2018-05-26T03:00:07.265Z,11.40
2018-05-26T03:03:10.610Z,11.30
2018-05-26T03:06:19.419Z,11.30
2018-05-26T03:09:28.188Z,11.30
2018-05-26T03:12:37.865Z,11.30
2018-05-26T03:15:41.177Z,11.30
2018-05-26T03:18:44.493Z,11.40
2018-05-26T03:21:47.800Z,11.40
2018-05-26T03:24:51.148Z,11.50
2018-05-26T03:27:54.453Z,11.50
2018-05-26T03:30:57.793Z,11.40
2018-05-26T03:34:01.097Z,11.40
2018-05-26T03:37:04.418Z,11.40
2018-05-26T03:40:08.498Z,11.30
2018-05-26T03:43:11.817Z,11.30
2018-05-26T03:46:15.881Z,11.50
2018-05-26T03:49:19.193Z,11.40
2018-05-26T03:52:22.500Z,11.50
2018-05-26T03:55:44.501Z,11.50
2018-05-26T03:59:05.582Z,11.60
2018-05-26T04:02:09.667Z,11.70
2018-05-26T04:05:12.964Z,11.70
2018-05-26T04:08:16.301Z,11.80
2018-05-26T04:11:20.433Z,11.90
2018-05-26T04:14:23.746Z,11.90
2018-05-26T04:17:27.053Z,12.00
2018-05-26T04:20:30.373Z,12.00
2018-05-26T04:23:33.677Z,12.20
2018-05-26T04:26:36.995Z,12.30
2018-05-26T04:29:40.302Z,12.30
2018-05-26T04:32:43.630Z,12.40
2018-05-26T04:35:46.933Z,12.50
2018-05-26T04:38:50.344Z,12.60
2018-05-26T04:41:53.654Z,12.80
2018-05-26T04:44:56.977Z,12.80
2018-05-26T04:48:00.286Z,12.90
2018-05-26T04:51:03.728Z,12.90
2018-05-26T04:54:07.045Z,13.10
2018-05-26T04:57:10.358Z,13.20
2018-05-26T05:00:14.430Z,13.40
2018-05-26T05:03:17.749Z,13.40
2018-05-26T05:06:21.070Z,13.60
2018-05-26T05:09:25.142Z,13.80
2018-05-26T05:12:28.465Z,13.80
2018-05-26T05:15:31.782Z,13.90
2018-05-26T05:18:35.097Z,14.10
2018-05-26T05:21:38.402Z,14.20
2018-05-26T05:24:41.718Z,14.30
2018-05-26T05:27:45.030Z,14.40
2018-05-26T05:30:48.349Z,14.50
2018-05-26T05:33:51.653Z,14.70
2018-05-26T05:36:55.741Z,14.80
2018-05-26T05:39:59.057Z,14.80
2018-05-26T05:43:03.141Z,15.10
2018-05-26T05:46:06.465Z,15.10
2018-05-26T05:49:10.532Z,15.30
2018-05-26T05:52:13.848Z,15.30
2018-05-26T05:55:17.202Z,15.50
2018-05-26T05:58:20.504Z,15.60
2018-05-26T06:01:23.813Z,15.70
2018-05-26T06:04:27.130Z,15.80
2018-05-26T06:07:30.450Z,15.90
2018-05-26T06:10:33.760Z,16.00
2018-05-26T06:13:37.847Z,16.30
2018-05-26T06:16:41.158Z,16.30
2018-05-26T06:19:44.483Z,16.40
2018-05-26T06:22:47.825Z,16.40
2018-05-26T06:25:51.134Z,16.60
2018-05-26T06:28:54.453Z,16.60
2018-05-26T06:31:58.541Z,16.90
2018-05-26T06:35:01.841Z,16.90
2018-05-26T06:38:05.174Z,17.00
2018-05-26T06:41:09.262Z,17.30
2018-05-26T06:44:12.575Z,17.30
2018-05-26T06:47:16.675Z,17.60
2018-05-26T06:50:19.989Z,17.60
2018-05-26T06:53:23.325Z,17.70
2018-05-26T06:56:26.644Z,17.80
2018-05-26T06:59:29.958Z,18.00
2018-05-26T07:02:33.282Z,18.10
2018-05-26T07:05:36.608Z,18.20
2018-05-26T07:08:39.937Z,18.30
2018-05-26T07:11:43.257Z,18.40
2018-05-26T07:14:47.339Z,18.60
2018-05-26T07:17:50.674Z,18.60
2018-05-26T07:20:53.982Z,18.80
2018-05-26T07:23:57.310Z,18.90
2018-05-26T07:27:00.614Z,19.10
2018-05-26T07:30:03.929Z,19.20
2018-05-26T07:33:07.240Z,19.30
2018-05-26T07:36:10.569Z,19.50
2018-05-26T07:39:13.886Z,19.60
2018-05-26T07:42:17.197Z,19.80
2018-05-26T07:45:20.509Z,19.90
2018-05-26T07:48:23.838Z,20.10
2018-05-26T07:51:27.914Z,20.40
2018-05-26T07:54:31.233Z,20.30
2018-05-26T07:57:34.560Z,20.50
2018-05-26T08:00:37.885Z,20.60
2018-05-26T08:03:41.185Z,20.80
2018-05-26T08:06:44.508Z,20.80
2018-05-26T08:09:47.822Z,21.10
2018-05-26T08:12:51.143Z,21.30
2018-05-26T08:15:54.452Z,21.40
2018-05-26T08:18:57.779Z,21.40
2018-05-26T08:22:01.101Z,21.50
2018-05-26T08:25:04.422Z,21.50
2018-05-26T08:28:07.859Z,21.50
2018-05-26T08:31:11.170Z,21.60
2018-05-26T08:34:14.495Z,21.60
2018-05-26T08:37:17.806Z,21.70
2018-05-26T08:40:21.890Z,21.80
2018-05-26T08:43:25.198Z,21.80
2018-05-26T08:46:28.500Z,21.80
2018-05-26T08:49:31.801Z,21.90
2018-05-26T08:52:35.109Z,21.80
2018-05-26T08:55:39.178Z,21.90
2018-05-26T08:58:42.497Z,21.80
2018-05-26T09:01:45.807Z,21.80
2018-05-26T09:04:49.130Z,21.80
2018-05-26T09:07:52.442Z,22.00
2018-05-26T09:10:55.751Z,22.10
2018-05-26T09:13:59.082Z,22.20
2018-05-26T09:17:02.383Z,22.20
2018-05-26T09:20:05.702Z,22.40
2018-05-26T09:23:09.028Z,22.40
2018-05-26T09:26:12.372Z,22.50
2018-05-26T09:29:15.696Z,22.50
2018-05-26T09:32:19.029Z,22.60
2018-05-26T09:35:22.337Z,22.60
2018-05-26T09:38:25.654Z,22.60
2018-05-26T09:41:28.958Z,22.60
2018-05-26T09:44:32.298Z,22.60
2018-05-26T09:47:35.614Z,22.70
2018-05-26T09:50:38.947Z,22.70
2018-05-26T09:53:42.266Z,22.80
2018-05-26T09:56:46.364Z,22.90
2018-05-26T09:59:49.675Z,22.80
2018-05-26T10:02:53.761Z,22.90
2018-05-26T10:05:57.094Z,22.90
2018-05-26T10:09:00.413Z,23.00
2018-05-26T10:12:03.717Z,23.10
2018-05-26T10:15:07.035Z,23.20
2018-05-26T10:18:10.347Z,23.30
2018-05-26T10:21:13.670Z,23.30
2018-05-26T10:24:16.978Z,23.30
2018-05-26T10:27:20.297Z,23.40
2018-05-26T10:30:23.605Z,23.30
2018-05-26T10:33:26.963Z,23.20
2018-05-26T10:36:30.270Z,23.10
2018-05-26T10:39:33.595Z,23.10
2018-05-26T10:42:36.930Z,23.00
2018-05-26T10:45:40.237Z,23.10
2018-05-26T10:48:44.330Z,23.20
2018-05-26T10:51:47.633Z,23.20
2018-05-26T10:54:50.940Z,23.40
2018-05-26T10:57:54.245Z,23.50
2018-05-26T11:00:58.326Z,23.50
2018-05-26T11:04:01.663Z,23.50
2018-05-26T11:07:04.968Z,23.60
2018-05-26T11:10:08.319Z,23.70
2018-05-26T11:13:11.625Z,23.90
2018-05-26T11:16:15.045Z,24.00
2018-05-26T11:19:18.279Z,24.10
2018-05-26T11:22:21.586Z,24.10
2018-05-26T11:25:24.907Z,24.20
2018-05-26T11:28:28.237Z,24.20
2018-05-26T11:31:31.578Z,24.20
2018-05-26T11:34:34.970Z,24.20
2018-05-26T11:37:38.294Z,24.20
2018-05-26T11:40:41.635Z,24.30
2018-05-26T11:43:44.945Z,24.40
2018-05-26T11:46:48.269Z,24.40
2018-05-26T11:49:51.616Z,24.50
2018-05-26T11:52:54.931Z,24.50
2018-05-26T11:55:58.267Z,24.60
2018-05-26T11:59:01.578Z,24.50
2018-05-26T12:02:04.925Z,24.40
2018-05-26T12:05:08.219Z,24.50
2018-05-26T12:08:11.558Z,24.60
2018-05-26T12:11:14.889Z,24.70
2018-05-26T12:14:18.216Z,24.80
2018-05-26T12:17:21.542Z,24.90
2018-05-26T12:20:24.867Z,25.00
2018-05-26T12:23:28.952Z,25.00
2018-05-26T12:26:32.290Z,25.00
2018-05-26T12:29:35.610Z,25.10
2018-05-26T12:32:38.930Z,25.10
2018-05-26T12:35:42.229Z,25.00
2018-05-26T12:38:45.549Z,25.00
2018-05-26T12:41:48.870Z,25.00
2018-05-26T12:44:52.952Z,25.00
2018-05-26T12:47:56.269Z,25.00
2018-05-26T12:51:00.365Z,24.90
2018-05-26T12:54:03.695Z,24.90
2018-05-26T12:57:07.108Z,24.90
2018-05-26T13:00:10.433Z,24.90
2018-05-26T13:03:13.757Z,24.90
2018-05-26T13:06:17.073Z,24.90
2018-05-26T13:09:21.170Z,25.10
2018-05-26T13:12:24.472Z,25.10
2018-05-26T13:15:27.805Z,25.10
2018-05-26T13:18:31.104Z,25.10
2018-05-26T13:21:34.438Z,25.10
2018-05-26T13:24:37.754Z,25.20
2018-05-26T13:27:41.065Z,25.20
2018-05-26T13:30:45.137Z,25.20
2018-05-26T13:33:48.469Z,25.20
2018-05-26T13:36:51.783Z,25.30
2018-05-26T13:39:55.114Z,25.40
2018-05-26T13:42:58.435Z,25.40
2018-05-26T13:46:01.764Z,25.50
2018-05-26T13:49:05.090Z,25.40
2018-05-26T13:52:08.451Z,25.40
2018-05-26T13:55:11.782Z,25.40
2018-05-26T13:58:15.865Z,25.40
2018-05-26T14:01:19.165Z,25.40
2018-05-26T14:04:23.281Z,25.50
2018-05-26T14:07:27.359Z,25.70
2018-05-26T14:10:30.712Z,25.70
2018-05-26T14:13:34.024Z,25.80
2018-05-26T14:16:37.407Z,26.00
2018-05-26T14:19:40.694Z,26.20
2018-05-26T14:22:44.037Z,26.30
2018-05-26T14:25:47.353Z,26.40
2018-05-26T14:28:50.677Z,26.50
2018-05-26T14:31:54.001Z,26.40
2018-05-26T14:34:57.340Z,26.40
2018-05-26T14:38:00.664Z,26.50
2018-05-26T14:41:04.757Z,26.50
2018-05-26T14:44:08.108Z,26.40
2018-05-26T14:47:11.417Z,26.50
2018-05-26T14:50:14.735Z,26.70
2018-05-26T14:53:18.054Z,26.80
2018-05-26T14:56:21.393Z,27.00
2018-05-26T14:59:24.706Z,27.20
2018-05-26T15:02:28.014Z,27.60
2018-05-26T15:05:31.309Z,27.90
2018-05-26T15:08:34.642Z,28.20
2018-05-26T15:11:37.955Z,28.30
2018-05-26T15:14:42.038Z,28.70
2018-05-26T15:17:45.342Z,28.70
2018-05-26T15:20:48.652Z,28.90
2018-05-26T15:23:52.749Z,29.00
2018-05-26T15:26:56.040Z,29.00
2018-05-26T15:29:59.361Z,28.90
2018-05-26T15:33:03.441Z,29.30
2018-05-26T15:36:06.762Z,29.20
2018-05-26T15:39:10.070Z,29.10
2018-05-26T15:42:14.146Z,29.00
2018-05-26T15:45:17.473Z,28.90
2018-05-26T15:48:20.782Z,28.80
2018-05-26T15:51:24.899Z,29.10
2018-05-26T15:54:28.207Z,29.10
2018-05-26T15:57:31.527Z,29.00
2018-05-26T16:00:34.881Z,29.10
2018-05-26T16:03:38.186Z,28.90
2018-05-26T16:06:42.276Z,28.50
2018-05-26T16:09:45.582Z,28.50
2018-05-26T16:12:49.656Z,27.60
2018-05-26T16:15:52.974Z,27.60
2018-05-26T16:18:56.288Z,27.30
2018-05-26T16:21:59.619Z,26.70
2018-05-26T16:25:02.930Z,26.30
2018-05-26T16:28:06.271Z,26.10
2018-05-26T16:31:09.578Z,25.70
2018-05-26T16:34:12.913Z,25.50
2018-05-26T16:37:16.221Z,25.30
2018-05-26T16:40:19.543Z,25.20
2018-05-26T16:43:22.845Z,25.00
2018-05-26T16:46:26.170Z,24.80
2018-05-26T16:49:29.471Z,24.80
2018-05-26T16:52:33.549Z,24.60
2018-05-26T16:55:36.866Z,24.60
2018-05-26T16:58:40.178Z,24.50
2018-05-26T17:01:44.269Z,24.30
2018-05-26T17:04:47.590Z,24.30
2018-05-26T17:07:50.910Z,24.10
2018-05-26T17:10:54.226Z,24.00
2018-05-26T17:13:57.537Z,23.90
2018-05-26T17:17:00.857Z,23.90
2018-05-26T17:20:04.174Z,23.90
2018-05-26T17:23:07.506Z,23.80
2018-05-26T17:26:10.809Z,23.70
2018-05-26T17:29:14.131Z,23.70
2018-05-26T17:32:17.433Z,23.70
2018-05-26T17:35:20.748Z,23.60
2018-05-26T17:38:24.818Z,23.50
2018-05-26T17:41:28.142Z,23.40
2018-05-26T17:44:31.450Z,23.50
2018-05-26T17:47:35.535Z,23.40
2018-05-26T17:50:38.850Z,23.40
2018-05-26T17:53:42.171Z,23.30
2018-05-26T17:56:46.251Z,23.20
2018-05-26T17:59:49.583Z,23.20
2018-05-26T18:02:53.652Z,23.10
2018-05-26T18:05:56.981Z,23.20
2018-05-26T18:09:00.328Z,23.10
2018-05-26T18:12:03.652Z,23.00
2018-05-26T18:15:07.016Z,22.90
2018-05-26T18:18:10.362Z,22.90
2018-05-26T18:21:13.679Z,22.80
2018-05-26T18:24:17.803Z,22.70
2018-05-26T18:27:21.101Z,22.70
2018-05-26T18:30:24.429Z,22.60
2018-05-26T18:33:27.759Z,22.60
2018-05-26T18:36:31.065Z,22.50
2018-05-26T18:39:34.389Z,22.60
2018-05-26T18:42:37.705Z,22.40
2018-05-26T18:45:41.806Z,22.40
2018-05-26T18:48:45.163Z,22.30
2018-05-26T18:51:48.449Z,22.30
2018-05-26T18:54:51.758Z,22.20
2018-05-26T18:57:55.080Z,22.20
2018-05-26T19:00:59.157Z,22.00
2018-05-26T19:04:02.561Z,22.00
2018-05-26T19:07:05.871Z,22.00
2018-05-26T19:10:09.950Z,21.80
2018-05-26T19:13:13.257Z,21.80
2018-05-26T19:16:16.573Z,21.80
2018-05-26T19:19:20.670Z,21.70
2018-05-26T19:22:23.979Z,21.70
2018-05-26T19:25:27.296Z,21.70
2018-05-26T19:28:31.379Z,21.40
2018-05-26T19:31:34.701Z,21.40
2018-05-26T19:34:38.805Z,21.30
2018-05-26T19:37:42.100Z,21.30
2018-05-26T19:40:45.450Z,21.30
2018-05-26T19:43:48.763Z,21.20
2018-05-26T19:46:52.078Z,21.00
2018-05-26T19:49:55.401Z,20.90
2018-05-26T19:52:59.485Z,20.80
2018-05-26T19:56:02.805Z,20.70
2018-05-26T19:59:06.877Z,20.60
2018-05-26T20:02:10.202Z,20.60
2018-05-26T20:05:13.510Z,20.60
2018-05-26T20:08:16.821Z,20.50
2018-05-26T20:11:20.129Z,20.50
2018-05-26T20:14:23.425Z,20.40
2018-05-26T20:17:26.733Z,20.30
2018-05-26T20:20:30.047Z,20.30
2018-05-26T20:23:33.374Z,20.20
2018-05-26T20:26:36.678Z,20.20
2018-05-26T20:29:39.989Z,20.10
2018-05-26T20:32:44.070Z,20.10
2018-05-26T20:35:47.385Z,20.00
2018-05-26T20:38:50.702Z,20.00
2018-05-26T20:41:54.920Z,19.90
2018-05-26T20:44:58.997Z,19.80
2018-05-26T20:48:02.305Z,19.80
2018-05-26T20:51:05.623Z,19.80
2018-05-26T20:54:09.715Z,19.60
2018-05-26T20:57:13.023Z,19.60
2018-05-26T21:00:16.342Z,19.60
2018-05-26T21:03:20.429Z,19.40
2018-05-26T21:06:23.729Z,19.40
2018-05-26T21:09:27.065Z,19.30
2018-05-26T21:12:30.366Z,19.30
2018-05-26T21:15:33.672Z,19.30
2018-05-26T21:18:36.970Z,19.30
2018-05-26T21:21:41.084Z,19.30
2018-05-26T21:24:44.390Z,19.20
2018-05-26T21:27:47.747Z,19.30
2018-05-26T21:30:51.808Z,19.20
2018-05-26T21:33:55.125Z,19.20
2018-05-26T21:36:58.430Z,19.30
2018-05-26T21:40:01.758Z,19.20
2018-05-26T21:43:05.070Z,19.20
2018-05-26T21:46:08.393Z,19.10
2018-05-26T21:49:11.722Z,19.10
2018-05-26T21:52:15.806Z,19.10
2018-05-26T21:55:19.125Z,19.00
2018-05-26T21:58:22.453Z,19.00
2018-05-26T22:01:25.752Z,19.10
2018-05-26T22:04:29.072Z,19.00
2018-05-26T22:07:32.386Z,18.90
2018-05-26T22:10:35.722Z,18.80
2018-05-26T22:13:39.815Z,18.70
2018-05-26T22:16:43.145Z,18.70
2018-05-26T22:19:46.486Z,18.70
2018-05-26T22:22:49.790Z,18.70
2018-05-26T22:25:53.120Z,18.60
2018-05-26T22:28:57.199Z,18.50
2018-05-26T22:32:00.518Z,18.50
2018-05-26T22:35:03.827Z,18.50
2018-05-26T22:38:07.905Z,18.40
2018-05-26T22:41:11.206Z,18.40
2018-05-26T22:44:14.550Z,18.40
2018-05-26T22:47:18.623Z,18.30
2018-05-26T22:50:21.942Z,18.30
2018-05-26T22:53:25.245Z,18.30
2018-05-26T22:56:29.346Z,18.20
2018-05-26T22:59:32.657Z,18.20
2018-05-26T23:02:36.738Z,18.10
2018-05-26T23:05:40.086Z,18.10
2018-05-26T23:08:43.402Z,18.10
2018-05-26T23:11:46.713Z,18.10
2018-05-26T23:14:50.019Z,18.00
2018-05-26T23:17:53.341Z,18.00
2018-05-26T23:20:56.654Z,18.00
2018-05-26T23:23:59.971Z,17.90
2018-05-26T23:27:03.294Z,17.90
2018-05-26T23:30:06.602Z,17.90
2018-05-26T23:33:09.961Z,17.90
2018-05-26T23:36:13.278Z,17.80
2018-05-26T23:39:16.597Z,17.80
2018-05-26T23:42:19.909Z,17.70
2018-05-26T23:45:23.225Z,17.70
2018-05-26T23:48:26.538Z,17.70
2018-05-26T23:51:29.881Z,17.70
2018-05-26T23:54:33.187Z,17.60
2018-05-26T23:57:36.502Z,17.50
